Time;durP1;ratioP1;P1;durP2;ratioP2;P2;SDS_P1;SDS_P2;PMS_P1;PMS_P2;Temp;Humidity;BMP_temperature;BMP_pressure;BME280_temperature;BME280_humidity;BME280_pressure;Samples;Min_cycle;Max_cycle;Signal;HPM_P1;HPM_P2
2022/01/15 00:01:50;;;;;;;7.50;5.40;;;;;;;-0.49;100.00;100418.58;103534;1300;24220;-29
2022/01/15 00:04:16;;;;;;;6.70;2.60;;;;;;;-0.50;100.00;100423.59;103594;1300;24245;-29
2022/01/15 00:06:42;;;;;;;20.20;5.40;;;;;;;-0.34;99.85;100423.94;103663;1300;24293;-27
2022/01/15 00:09:08;;;;;;;10.30;4.40;;;;;;;-0.48;99.95;100418.20;103557;1300;24228;-28
2022/01/15 00:11:35;;;;;;;17.10;3.30;;;;;;;-0.46;100.00;100419.84;103545;1300;24346;-27
2022/01/15 00:16:44;;;;;;;13.30;3.30;;;;;;;-0.49;99.91;100421.09;103589;1300;24207;-26
2022/01/15 00:19:12;;;;;;;23.00;4.60;;;;;;;-0.50;99.91;100422.41;103579;1300;22521;-25
2022/01/15 00:21:39;;;;;;;35.30;8.40;;;;;;;-0.51;99.72;100421.00;103527;1302;25363;-25
2022/01/15 00:24:05;;;;;;;50.10;11.70;;;;;;;-0.64;99.94;100419.80;103538;1300;22559;-29
2022/01/15 00:26:32;;;;;;;52.00;11.70;;;;;;;-0.80;100.00;100415.56;103550;1302;24312;-30
2022/01/15 00:28:58;;;;;;;24.50;8.60;;;;;;;-0.68;100.00;100411.06;103552;1300;24305;-30
2022/01/15 00:31:24;;;;;;;22.20;8.70;;;;;;;-0.67;100.00;100411.91;103496;1302;24218;-25
2022/01/15 00:33:50;;;;;;;20.00;7.60;;;;;;;-0.61;100.00;100409.91;103498;1302;24352;-29
2022/01/15 00:36:16;;;;;;;40.90;7.00;;;;;;;-0.60;99.97;100408.64;103606;1302;24346;-25
2022/01/15 00:38:42;;;;;;;36.00;6.40;;;;;;;-0.57;99.82;100407.72;103540;1302;24233;-28
2022/01/15 00:41:08;;;;;;;34.30;9.70;;;;;;;-0.73;100.00;100404.37;103552;1300;24314;-31
2022/01/15 00:43:34;;;;;;;32.50;12.40;;;;;;;-0.80;100.00;100405.52;103476;1302;24213;-31
2022/01/15 00:46:00;;;;;;;67.70;14.40;;;;;;;-0.81;100.00;100405.94;103485;1300;24276;-29
2022/01/15 00:48:26;;;;;;;60.00;10.90;;;;;;;-0.89;100.00;100408.05;103535;1302;22642;-28
2022/01/15 00:50:53;;;;;;;34.20;8.00;;;;;;;-1.05;100.00;100409.60;103556;1302;25359;-25
2022/01/15 00:53:19;;;;;;;23.30;7.30;;;;;;;-1.14;100.00;100412.08;103470;1302;24189;-25
2022/01/15 00:55:45;;;;;;;45.50;14.20;;;;;;;-1.09;100.00;100416.67;103553;1300;24370;-31
2022/01/15 00:58:12;;;;;;;28.70;11.00;;;;;;;-0.95;100.00;100420.16;103459;1300;22764;-29
2022/01/15 01:00:38;;;;;;;24.60;6.30;;;;;;;-0.79;100.00;100420.40;103525;1301;22522;-31
2022/01/15 01:03:04;;;;;;;29.10;9.00;;;;;;;-0.67;100.00;100423.11;103483;1302;24222;-26
2022/01/15 01:05:30;;;;;;;34.40;9.10;;;;;;;-0.76;100.00;100426.89;103475;1302;24255;-29
2022/01/15 01:07:57;;;;;;;21.50;5.80;;;;;;;-0.72;100.00;100433.15;103603;1300;24280;-25
2022/01/15 01:10:48;;;;;;;14.20;6.40;;;;;;;-0.68;100.00;100433.22;103541;1301;24266;-25
2022/01/15 01:13:27;;;;;;;23.70;6.10;;;;;;;-0.49;100.00;100434.45;103493;1302;24266;-27
2022/01/15 01:23:17;;;;;;;32.50;7.10;;;;;;;-0.52;99.24;100432.02;103508;1301;22507;-29
2022/01/15 01:25:46;;;;;;;21.00;7.60;;;;;;;-0.38;98.79;100427.89;103472;1302;24307;-25
2022/01/15 01:28:21;;;;;;;58.60;12.90;;;;;;;-0.38;98.39;100428.48;103554;1301;22638;-31
2022/01/15 01:30:53;;;;;;;17.90;6.10;;;;;;;-0.57;98.99;100425.63;103501;1300;24264;-31
2022/01/15 01:33:34;;;;;;;22.80;8.70;;;;;;;-0.61;99.35;100425.91;103504;1300;24217;-27
2022/01/15 01:41:18;;;;;;;27.00;10.50;;;;;;;-0.63;99.22;100427.10;103532;1300;23018;-29
2022/01/15 01:43:49;;;;;;;36.50;13.80;;;;;;;-0.55;99.14;100424.30;103505;1300;24214;-26
2022/01/15 01:46:29;;;;;;;33.60;9.70;;;;;;;-0.69;99.07;100425.23;103571;1300;24217;-25
2022/01/15 01:48:56;;;;;;;9.10;3.90;;;;;;;-0.68;99.52;100430.61;103534;1300;24311;-29
2022/01/15 01:51:21;;;;;;;17.30;4.40;;;;;;;-0.73;99.42;100432.65;103590;1301;24308;-26
2022/01/15 01:53:48;;;;;;;36.10;10.20;;;;;;;-0.67;99.66;100425.09;103477;1302;24370;-29
2022/01/15 01:56:14;;;;;;;21.90;8.20;;;;;;;-0.56;98.99;100424.00;103495;1302;22507;-26
2022/01/15 01:58:40;;;;;;;16.70;5.80;;;;;;;-0.58;98.66;100422.03;103474;1302;24362;-28
2022/01/15 02:01:06;;;;;;;18.20;5.80;;;;;;;-0.80;99.44;100431.03;103523;1302;24256;-29
2022/01/15 02:03:32;;;;;;;11.40;6.30;;;;;;;-0.74;99.64;100431.65;103502;1302;24201;-25
2022/01/15 02:05:58;;;;;;;13.20;6.70;;;;;;;-0.76;99.44;100436.91;103518;1300;24460;-30
2022/01/15 02:08:24;;;;;;;14.30;3.30;;;;;;;-0.84;100.00;100440.28;103493;1300;24334;-30
2022/01/15 02:10:50;;;;;;;31.50;5.80;;;;;;;-0.97;100.00;100442.45;103555;1300;24200;-30
2022/01/15 02:13:18;;;;;;;19.20;5.10;;;;;;;-0.82;99.99;100440.83;103534;1302;22639;-30
2022/01/15 02:15:44;;;;;;;25.50;7.00;;;;;;;-0.89;100.00;100439.51;103571;1300;24226;-26
2022/01/15 02:18:11;;;;;;;9.50;5.90;;;;;;;-0.93;100.00;100438.21;103540;1302;24371;-28
2022/01/15 02:21:02;;;;;;;32.70;7.60;;;;;;;-0.91;100.00;100439.44;103510;1300;22512;-29
2022/01/15 02:25:54;;;;;;;12.40;3.60;;;;;;;-0.97;100.00;100433.33;103568;1300;24214;-29
2022/01/15 02:28:22;;;;;;;12.70;5.40;;;;;;;-0.84;100.00;100427.39;103507;1302;22728;-26
2022/01/15 02:30:52;;;;;;;17.50;5.20;;;;;;;-0.90;100.00;100427.98;103674;1300;24336;-30
2022/01/15 02:33:18;;;;;;;29.50;8.20;;;;;;;-0.95;100.00;100423.86;103516;1300;24234;-26
2022/01/15 02:35:44;;;;;;;19.50;8.20;;;;;;;-0.96;100.00;100420.77;103541;1302;24301;-29
2022/01/15 02:38:12;;;;;;;13.10;7.10;;;;;;;-0.86;100.00;100420.13;103520;1300;24291;-27
2022/01/15 02:40:38;;;;;;;5.60;3.50;;;;;;;-1.07;100.00;100416.70;103466;1302;24134;-27
2022/01/15 02:43:04;;;;;;;4.80;3.60;;;;;;;-1.12;100.00;100411.46;103564;1302;24213;-27
2022/01/15 02:45:32;;;;;;;8.70;5.30;;;;;;;-1.05;100.00;100409.57;103569;1300;24325;-27
2022/01/15 02:48:03;;;;;;;6.30;4.00;;;;;;;-0.99;100.00;100405.67;103567;1300;23048;-31
2022/01/15 02:50:29;;;;;;;11.10;4.60;;;;;;;-1.20;100.00;100409.50;103588;1300;24319;-27
2022/01/15 02:52:59;;;;;;;10.60;4.30;;;;;;;-1.14;100.00;100411.04;103467;1300;24345;-27
2022/01/15 02:55:26;;;;;;;15.80;5.00;;;;;;;-1.16;100.00;100416.11;103507;1300;24226;-25
2022/01/15 02:57:52;;;;;;;10.20;3.50;;;;;;;-1.22;100.00;100413.84;103552;1300;24309;-27
2022/01/15 03:00:18;;;;;;;5.90;3.60;;;;;;;-1.41;100.00;100414.82;103597;1300;24205;-25
2022/01/15 03:02:45;;;;;;;16.40;5.70;;;;;;;-1.29;100.00;100414.46;103469;1302;24179;-25
2022/01/15 03:05:11;;;;;;;17.40;7.20;;;;;;;-1.33;100.00;100417.48;103620;1300;24258;-25
2022/01/15 03:07:37;;;;;;;9.10;4.10;;;;;;;-1.25;100.00;100416.83;103563;1300;24345;-31
2022/01/15 03:10:04;;;;;;;14.70;2.90;;;;;;;-1.49;100.00;100420.92;103591;1300;24343;-26
2022/01/15 03:12:30;;;;;;;3.50;1.80;;;;;;;-1.53;100.00;100420.48;103579;1300;24176;-26
2022/01/15 03:15:00;;;;;;;12.50;2.10;;;;;;;-1.43;100.00;100420.05;103593;1300;24260;-24
2022/01/15 03:17:26;;;;;;;17.30;7.60;;;;;;;-1.37;100.00;100415.83;103610;1300;25385;-31
2022/01/15 03:19:52;;;;;;;6.90;2.70;;;;;;;-1.50;100.00;100420.27;103562;1300;24213;-29
2022/01/15 03:22:18;;;;;;;7.30;3.20;;;;;;;-1.54;100.00;100422.46;103573;1302;24227;-26
2022/01/15 03:24:45;;;;;;;8.20;1.70;;;;;;;-1.51;100.00;100423.54;103575;1300;24302;-25
2022/01/15 03:27:11;;;;;;;9.60;5.00;;;;;;;-1.40;100.00;100422.01;103545;1300;24195;-26
2022/01/15 03:29:36;;;;;;;13.90;3.10;;;;;;;-1.36;100.00;100413.66;103536;1300;24202;-29
2022/01/15 03:32:03;;;;;;;9.30;2.60;;;;;;;-1.35;100.00;100412.89;103486;1302;24295;-30
2022/01/15 03:34:28;;;;;;;9.70;4.00;;;;;;;-1.37;100.00;100420.58;103550;1302;24271;-27
2022/01/15 03:36:54;;;;;;;22.00;5.90;;;;;;;-1.44;100.00;100417.63;103461;1300;24220;-29
2022/01/15 03:39:20;;;;;;;15.30;3.60;;;;;;;-1.40;100.00;100420.08;103568;1300;24391;-27
2022/01/15 03:41:46;;;;;;;10.20;2.80;;;;;;;-1.47;100.00;100425.56;103497;1302;24237;-31
2022/01/15 03:44:12;;;;;;;8.60;3.00;;;;;;;-1.49;100.00;100430.26;103524;1300;24185;-25
2022/01/15 03:46:38;;;;;;;8.00;2.50;;;;;;;-1.46;100.00;100430.77;103547;1302;24252;-29
2022/01/15 03:49:04;;;;;;;10.70;2.40;;;;;;;-1.56;100.00;100426.29;103504;1300;24296;-25
2022/01/15 03:51:30;;;;;;;4.10;1.70;;;;;;;-1.35;100.00;100422.88;103463;1300;24197;-26
2022/01/15 03:53:55;;;;;;;8.10;2.80;;;;;;;-1.27;100.00;100422.41;103520;1302;22524;-28
2022/01/15 03:56:23;;;;;;;9.00;3.40;;;;;;;-1.33;100.00;100427.01;103539;1300;24218;-26
2022/01/15 03:58:49;;;;;;;19.90;3.80;;;;;;;-1.22;100.00;100428.39;103536;1300;22752;-29
2022/01/15 04:01:15;;;;;;;8.50;2.40;;;;;;;-1.27;100.00;100428.16;103526;1302;24316;-29
2022/01/15 04:03:41;;;;;;;33.20;3.60;;;;;;;-1.27;100.00;100424.52;103494;1302;24197;-26
2022/01/15 04:06:07;;;;;;;9.60;2.60;;;;;;;-1.29;100.00;100425.16;103602;1300;22544;-26
2022/01/15 04:08:33;;;;;;;12.80;6.30;;;;;;;-1.33;100.00;100434.55;103527;1302;24329;-26
2022/01/15 04:10:59;;;;;;;10.70;2.30;;;;;;;-1.34;100.00;100432.67;103002;1300;668053;-29
2022/01/15 04:13:25;;;;;;;12.00;2.10;;;;;;;-1.43;100.00;100433.42;103547;1302;24223;-26
2022/01/15 04:15:52;;;;;;;5.70;2.50;;;;;;;-1.44;100.00;100437.52;103528;1302;24465;-29
2022/01/15 04:18:21;;;;;;;16.90;4.60;;;;;;;-1.53;100.00;100442.42;103494;1302;24169;-25
2022/01/15 04:20:47;;;;;;;4.80;2.60;;;;;;;-1.44;100.00;100450.48;103630;1300;24303;-29
2022/01/15 04:23:13;;;;;;;4.10;2.60;;;;;;;-1.45;100.00;100454.25;103509;1301;22594;-29
2022/01/15 04:25:39;;;;;;;7.00;3.20;;;;;;;-1.47;100.00;100456.48;103586;1300;24168;-26
2022/01/15 04:28:09;;;;;;;12.10;4.50;;;;;;;-1.38;100.00;100457.30;103558;1300;24263;-25
2022/01/15 04:30:37;;;;;;;10.50;2.80;;;;;;;-1.42;100.00;100459.35;103498;1300;24366;-29
2022/01/15 04:33:03;;;;;;;3.60;2.40;;;;;;;-1.32;100.00;100460.45;103569;1300;22724;-29
2022/01/15 04:35:29;;;;;;;8.00;2.20;;;;;;;-0.95;100.00;100457.98;103552;1300;22518;-29
2022/01/15 04:38:02;;;;;;;25.10;4.90;;;;;;;-1.01;100.00;100460.32;103586;1300;24243;-26
2022/01/15 04:40:28;;;;;;;;;;;;;;;-1.12;100.00;100467.34;103613;1300;24222;-26
2022/01/15 04:42:54;;;;;;;19.80;4.00;;;;;;;-1.09;100.00;100474.48;103463;1300;24186;-29
2022/01/15 04:45:20;;;;;;;38.40;4.20;;;;;;;-1.06;100.00;100471.17;103592;1300;24331;-29
2022/01/15 04:47:46;;;;;;;21.20;4.00;;;;;;;-0.81;100.00;100469.92;103489;1301;22979;-29
2022/01/15 04:50:13;;;;;;;10.30;4.60;;;;;;;-0.88;100.00;100471.97;103503;1300;24404;-29
2022/01/15 04:52:40;;;;;;;7.80;4.30;;;;;;;-1.03;100.00;100473.61;103519;1300;24228;-26
2022/01/15 04:55:07;;;;;;;19.80;4.60;;;;;;;-1.09;100.00;100476.06;103541;1302;25360;-26
2022/01/15 04:57:33;;;;;;;9.80;3.20;;;;;;;-0.95;100.00;100470.10;103549;1300;24259;-26
2022/01/15 04:59:59;;;;;;;11.60;3.70;;;;;;;-0.94;100.00;100468.48;103542;1300;24332;-26
2022/01/15 05:02:25;;;;;;;6.40;2.70;;;;;;;-0.87;100.00;100466.98;103578;1301;24424;-29
2022/01/15 05:04:51;;;;;;;2.50;1.80;;;;;;;-0.81;100.00;100464.66;103556;1300;24240;-29
2022/01/15 05:07:17;;;;;;;22.40;3.60;;;;;;;-0.37;99.93;100467.95;103483;1302;24213;-26
2022/01/15 05:09:44;;;;;;;11.10;2.40;;;;;;;-0.65;99.89;100473.66;103489;1302;24265;-28
2022/01/15 05:12:22;;;;;;;16.20;5.60;;;;;;;-0.55;99.94;100472.28;103520;1300;24354;-26
2022/01/15 05:14:48;;;;;;;21.30;4.00;;;;;;;-0.26;98.60;100470.76;103499;1300;24260;-29
2022/01/15 05:17:14;;;;;;;16.10;6.10;;;;;;;-0.40;98.16;100471.71;103523;1300;24309;-26
2022/01/15 05:19:40;;;;;;;19.70;4.10;;;;;;;-0.26;97.81;100470.56;103589;1300;24195;-25
2022/01/15 05:22:06;;;;;;;19.60;6.00;;;;;;;-0.46;97.88;100470.30;103530;1301;24311;-28
2022/01/15 05:24:33;;;;;;;12.10;3.80;;;;;;;-0.65;99.29;100465.55;103548;1300;24325;-28
2022/01/15 05:26:59;;;;;;;14.00;4.20;;;;;;;-0.84;100.00;100459.91;103604;1300;24259;-25
2022/01/15 05:29:25;;;;;;;22.50;3.40;;;;;;;-0.83;100.00;100451.61;103444;1302;24203;-26
2022/01/15 05:31:51;;;;;;;13.20;5.00;;;;;;;-0.46;99.36;100458.19;103435;1300;24229;-29
2022/01/15 05:34:17;;;;;;;13.40;5.10;;;;;;;-0.34;98.75;100463.22;103569;1302;22524;-29
2022/01/15 05:36:43;;;;;;;12.70;3.20;;;;;;;-0.60;98.31;100467.00;103580;1302;24345;-30
2022/01/15 05:39:09;;;;;;;10.20;3.30;;;;;;;-0.59;99.20;100468.02;103613;1300;22721;-27
2022/01/15 05:41:35;;;;;;;20.70;3.20;;;;;;;-0.36;98.31;100468.43;103532;1300;24353;-29
2022/01/15 05:44:02;;;;;;;8.10;4.10;;;;;;;-0.61;99.25;100466.52;103571;1300;24370;-28
2022/01/15 05:46:29;;;;;;;37.10;4.60;;;;;;;-0.57;99.06;100468.55;103567;1301;22506;-31
2022/01/15 05:48:56;;;;;;;10.90;2.80;;;;;;;-0.61;99.65;100460.23;103544;1300;24248;-26
2022/01/15 05:51:22;;;;;;;4.00;2.10;;;;;;;-0.49;98.68;100457.34;103500;1300;24253;-29
2022/01/15 05:53:48;;;;;;;16.80;5.30;;;;;;;-0.59;99.56;100465.70;103541;1300;24318;-26
2022/01/15 05:56:14;;;;;;;26.60;3.60;;;;;;;-0.47;99.25;100467.96;103648;1302;24164;-30
2022/01/15 05:58:41;;;;;;;5.70;2.30;;;;;;;-0.33;98.55;100467.71;103477;1302;24272;-26
2022/01/15 06:01:07;;;;;;;5.40;2.50;;;;;;;-0.49;98.96;100469.84;103594;1300;24174;-27
2022/01/15 06:03:33;;;;;;;23.10;1.80;;;;;;;-0.51;99.15;100470.98;103514;1300;24252;-29
2022/01/15 06:06:02;;;;;;;20.80;3.80;;;;;;;-0.44;99.58;100474.21;103589;1300;24411;-27
2022/01/15 06:08:28;;;;;;;33.60;5.20;;;;;;;-0.21;98.16;100473.97;103535;1300;24323;-27
2022/01/15 06:10:54;;;;;;;5.40;2.30;;;;;;;-0.06;97.33;100478.59;103547;1301;24302;-29
2022/01/15 06:13:20;;;;;;;33.80;7.10;;;;;;;-0.25;97.13;100479.69;103546;1300;22618;-30
2022/01/15 06:15:45;;;;;;;16.90;5.70;;;;;;;-0.31;98.38;100485.71;103556;1299;24369;-30
2022/01/15 06:18:12;;;;;;;49.00;7.20;;;;;;;-0.48;98.66;100484.54;103425;1302;24166;-27
2022/01/15 06:20:38;;;;;;;9.40;2.10;;;;;;;-0.31;98.85;100482.55;103532;1300;24423;-25
2022/01/15 06:23:04;;;;;;;16.30;4.30;;;;;;;-0.38;98.79;100481.22;103536;1300;24311;-28
2022/01/15 06:25:30;;;;;;;22.80;3.90;;;;;;;-0.41;98.62;100482.64;103499;1302;22880;-25
2022/01/15 06:27:56;;;;;;;33.90;4.10;;;;;;;-0.42;98.72;100482.36;103581;1301;24292;-29
2022/01/15 06:30:22;;;;;;;14.00;2.80;;;;;;;-0.37;99.14;100479.94;103566;1300;22522;-26
2022/01/15 06:32:48;;;;;;;17.40;4.80;;;;;;;-0.52;99.25;100485.46;103578;1300;22522;-26
2022/01/15 06:35:14;;;;;;;13.20;5.10;;;;;;;-0.18;98.09;100485.19;103510;1300;24355;-26
2022/01/15 06:37:40;;;;;;;20.00;4.70;;;;;;;-0.42;98.57;100483.80;103570;1300;24233;-29
2022/01/15 06:40:07;;;;;;;30.40;6.80;;;;;;;-0.28;98.16;100489.38;103577;1300;22721;-28
2022/01/15 06:42:33;;;;;;;7.10;3.30;;;;;;;-0.43;97.82;100488.56;103489;1300;24438;-29
2022/01/15 06:44:59;;;;;;;7.50;3.10;;;;;;;-0.49;98.55;100492.85;103560;1300;22777;-27
2022/01/15 06:47:25;;;;;;;9.90;3.70;;;;;;;-0.56;98.99;100498.61;103565;1300;24174;-28
2022/01/15 06:49:51;;;;;;;10.10;4.80;;;;;;;-0.40;98.60;100498.42;103538;1302;24405;-30
2022/01/15 06:52:17;;;;;;;15.30;4.10;;;;;;;-0.65;99.20;100496.02;103631;1300;24222;-27
2022/01/15 06:54:43;;;;;;;21.80;3.30;;;;;;;-0.65;99.70;100500.37;103570;1300;24334;-26
2022/01/15 06:57:08;;;;;;;12.70;4.30;;;;;;;-0.73;99.94;100501.27;103551;1300;22790;-28
2022/01/15 06:59:36;;;;;;;8.40;3.90;;;;;;;-0.50;99.69;100506.48;103509;1300;24193;-26
2022/01/15 07:02:03;;;;;;;8.80;3.70;;;;;;;-0.38;98.25;100508.15;103615;1300;24294;-26
2022/01/15 07:04:29;;;;;;;26.70;5.40;;;;;;;-0.56;98.96;100506.69;103513;1302;24189;-26
2022/01/15 07:06:54;;;;;;;11.50;2.80;;;;;;;-0.51;98.95;100503.88;103533;1300;24253;-25
2022/01/15 07:09:20;;;;;;;14.20;2.20;;;;;;;-0.78;99.12;100507.21;103468;1300;24339;-29
2022/01/15 07:11:46;;;;;;;10.70;3.00;;;;;;;-0.73;100.00;100510.02;103497;1300;24185;-29
2022/01/15 07:14:12;;;;;;;13.60;3.90;;;;;;;-0.73;99.82;100513.23;103551;1299;24316;-25
2022/01/15 07:16:38;;;;;;;13.90;5.10;;;;;;;-0.55;99.76;100510.64;103568;1300;24197;-28
2022/01/15 07:19:05;;;;;;;30.60;7.00;;;;;;;-0.43;98.68;100508.09;103573;1300;24203;-29
2022/01/15 07:21:30;;;;;;;13.50;3.70;;;;;;;-0.41;96.89;100504.99;103504;1300;24186;-29
2022/01/15 07:23:57;;;;;;;21.10;4.70;;;;;;;-0.57;98.35;100507.06;103648;1300;24332;-29
2022/01/15 07:26:23;;;;;;;23.00;4.90;;;;;;;-0.92;99.21;100506.48;103604;1300;24206;-34
2022/01/15 07:28:49;;;;;;;14.40;3.30;;;;;;;-0.53;98.93;100510.20;103516;1302;24339;-33
2022/01/15 07:31:15;;;;;;;13.30;6.40;;;;;;;-0.74;98.47;100507.80;103517;1300;22515;-28
2022/01/15 07:33:41;;;;;;;29.90;4.80;;;;;;;-0.94;99.09;100509.78;103524;1299;24391;-27
2022/01/15 07:36:06;;;;;;;9.50;3.90;;;;;;;-1.06;99.98;100508.78;103494;1300;24178;-31
2022/01/15 07:38:32;;;;;;;18.30;5.90;;;;;;;-0.89;99.69;100507.88;103523;1300;24244;-25
2022/01/15 07:40:59;;;;;;;14.30;3.60;;;;;;;-1.08;99.74;100519.41;103526;1302;24275;-29
2022/01/15 07:43:26;;;;;;;11.20;6.60;;;;;;;-1.08;100.00;100531.60;103568;1300;24234;-29
2022/01/15 07:45:53;;;;;;;12.30;2.90;;;;;;;-0.71;99.73;100529.45;103555;1300;24219;-28
2022/01/15 07:48:21;;;;;;;17.40;4.30;;;;;;;-0.98;99.86;100537.11;103502;1300;24342;-28
2022/01/15 07:50:48;;;;;;;29.50;7.90;;;;;;;-0.93;99.60;100540.86;103549;1300;22676;-29
2022/01/15 07:53:14;;;;;;;14.80;5.80;;;;;;;-1.03;99.48;100548.48;103517;1302;24322;-28
2022/01/15 07:55:40;;;;;;;11.30;3.50;;;;;;;-1.12;99.94;100553.62;103547;1302;22525;-28
2022/01/15 07:58:05;;;;;;;7.60;3.40;;;;;;;-0.83;99.48;100552.33;103581;1302;24403;-26
2022/01/15 08:00:33;;;;;;;22.50;6.30;;;;;;;-1.07;99.58;100553.50;103475;1302;24214;-28
2022/01/15 08:02:59;;;;;;;19.10;6.90;;;;;;;-1.01;99.95;100556.11;103514;1300;24343;-26
2022/01/15 08:05:25;;;;;;;15.60;4.40;;;;;;;-0.95;99.67;100559.61;103614;1300;24185;-26
2022/01/15 08:07:51;;;;;;;21.90;4.00;;;;;;;-1.00;99.67;100561.51;103517;1300;24282;-26
2022/01/15 08:10:16;;;;;;;11.50;3.70;;;;;;;-0.77;99.78;100559.92;103432;1302;24243;-30
2022/01/15 08:12:44;;;;;;;12.50;2.30;;;;;;;-0.77;99.49;100567.79;103486;1300;24342;-26
2022/01/15 08:15:10;;;;;;;10.80;3.30;;;;;;;-0.55;99.10;100566.08;103558;1300;25348;-28
2022/01/15 08:17:36;;;;;;;13.10;6.20;;;;;;;-0.64;98.72;100574.58;103521;1300;24274;-28
2022/01/15 08:20:03;;;;;;;15.70;4.00;;;;;;;-0.58;98.52;100575.77;103506;1300;22510;-30
2022/01/15 08:22:29;;;;;;;10.00;3.50;;;;;;;-0.47;98.16;100574.58;103508;1300;24208;-26
2022/01/15 08:24:55;;;;;;;14.20;3.90;;;;;;;-0.31;95.92;100568.79;103525;1301;24239;-29
2022/01/15 08:27:20;;;;;;;7.40;4.30;;;;;;;-0.50;97.09;100571.36;103565;1300;24205;-27
2022/01/15 08:29:46;;;;;;;62.80;2.70;;;;;;;-0.35;96.84;100570.29;103579;1300;24193;-31
2022/01/15 08:32:12;;;;;;;25.80;4.50;;;;;;;-0.19;95.90;100568.16;103565;1302;24332;-25
2022/01/15 08:34:38;;;;;;;18.10;4.30;;;;;;;-0.22;95.73;100576.28;103472;1301;24290;-29
2022/01/15 08:37:04;;;;;;;11.10;3.20;;;;;;;0.17;94.08;100580.27;103537;1302;24200;-28
2022/01/15 08:39:30;;;;;;;6.00;2.80;;;;;;;-0.28;94.84;100583.74;103593;1300;22518;-25
2022/01/15 08:41:56;;;;;;;11.00;4.60;;;;;;;-0.26;95.48;100585.19;103679;1300;22515;-29
2022/01/15 08:44:25;;;;;;;25.00;6.90;;;;;;;0.22;93.70;100585.04;103508;1302;22752;-28
2022/01/15 08:46:51;;;;;;;24.90;3.50;;;;;;;0.17;93.15;100580.60;103535;1300;25019;-29
2022/01/15 08:49:18;;;;;;;29.90;9.10;;;;;;;0.00;93.40;100580.80;103503;1300;24348;-29
2022/01/15 08:51:44;;;;;;;9.80;3.60;;;;;;;0.11;92.88;100580.83;103544;1300;24276;-26
2022/01/15 08:54:10;;;;;;;6.50;2.90;;;;;;;0.28;91.85;100588.02;103681;1300;24393;-27
2022/01/15 08:56:36;;;;;;;17.40;6.60;;;;;;;0.34;91.85;100591.65;103887;1302;24255;-32
2022/01/15 08:59:03;;;;;;;12.60;5.40;;;;;;;0.52;90.04;100590.96;103894;1300;24328;-26
2022/01/15 09:01:30;;;;;;;9.10;5.80;;;;;;;0.36;90.32;100587.48;103760;1300;22641;-29
2022/01/15 09:03:57;;;;;;;7.10;2.70;;;;;;;0.33;90.63;100584.15;103540;1302;24219;-26
2022/01/15 09:06:23;;;;;;;15.30;6.90;;;;;;;0.14;91.54;100591.34;104157;1300;22771;-28
2022/01/15 09:08:49;;;;;;;25.90;5.90;;;;;;;0.04;92.16;100593.23;103856;1300;22512;-31
2022/01/15 09:11:15;;;;;;;34.70;7.50;;;;;;;-0.09;93.30;100592.00;103545;1300;22518;-29
2022/01/15 09:13:41;;;;;;;9.90;6.10;;;;;;;-0.09;93.88;100589.52;103774;1300;22827;-30
2022/01/15 09:16:07;;;;;;;15.70;7.40;;;;;;;0.25;92.54;100587.98;103529;1302;22692;-30
2022/01/15 09:18:34;;;;;;;11.80;3.40;;;;;;;0.51;91.24;100596.17;103608;1300;24295;-24
2022/01/15 09:21:02;;;;;;;27.50;6.60;;;;;;;0.35;90.91;100596.35;103612;1300;22523;-28
2022/01/15 09:23:28;;;;;;;38.20;11.50;;;;;;;-0.02;93.05;100598.42;103569;1302;24224;-29
2022/01/15 09:25:57;;;;;;;7.30;4.30;;;;;;;0.15;94.24;100599.78;103624;1300;22672;-25
2022/01/15 09:30:52;;;;;;;26.30;10.90;;;;;;;0.69;91.04;100596.19;103555;1300;24260;-30
2022/01/15 09:33:18;;;;;;;20.40;7.10;;;;;;;0.97;88.81;100592.11;103668;1300;24400;-35
2022/01/15 09:35:44;;;;;;;63.20;20.30;;;;;;;1.04;88.92;100591.33;103633;1300;22519;-29
2022/01/15 09:38:10;;;;;;;16.40;2.90;;;;;;;0.67;89.83;100588.55;104104;1300;22711;-27
2022/01/15 09:40:40;;;;;;;14.40;8.00;;;;;;;0.65;90.27;100596.26;103457;1300;22949;-26
2022/01/15 09:43:06;;;;;;;41.90;14.80;;;;;;;0.66;90.77;100597.09;103646;1300;24241;-31
2022/01/15 09:45:34;;;;;;;14.10;5.40;;;;;;;0.57;90.62;100595.20;103668;1300;24429;-30
2022/01/15 09:48:00;;;;;;;48.30;14.40;;;;;;;0.54;91.97;100594.54;103660;1299;22509;-27
2022/01/15 09:50:28;;;;;;;31.00;8.30;;;;;;;1.06;90.01;100590.81;103663;1300;24216;-30
2022/01/15 09:52:54;;;;;;;26.00;8.40;;;;;;;1.17;88.35;100592.55;104006;1300;24306;-26
2022/01/15 09:55:21;;;;;;;15.30;5.20;;;;;;;1.33;87.27;100594.73;103743;1300;22763;-33
2022/01/15 09:57:47;;;;;;;47.10;12.30;;;;;;;1.21;87.61;100591.35;104030;1300;24296;-31
2022/01/15 10:00:15;;;;;;;29.50;4.80;;;;;;;1.09;89.18;100587.23;103764;1300;22699;-28
2022/01/15 10:02:43;;;;;;;31.50;9.90;;;;;;;1.47;87.53;100589.52;103748;1301;22655;-28
2022/01/15 10:05:10;;;;;;;43.00;18.50;;;;;;;1.73;86.33;100587.86;104132;1300;22788;-30
2022/01/15 10:07:36;;;;;;;18.60;7.20;;;;;;;1.66;86.31;100581.42;104304;1302;22524;-27
2022/01/15 10:10:11;;;;;;;15.00;4.40;;;;;;;1.65;86.95;100588.19;103816;1300;22509;-28
2022/01/15 10:12:41;;;;;;;30.40;11.00;;;;;;;1.72;87.29;100585.43;103505;1300;22633;-29
2022/01/15 10:15:07;;;;;;;22.00;12.10;;;;;;;1.77;88.56;100580.65;103610;1300;24231;-30
2022/01/15 10:17:35;;;;;;;13.50;4.20;;;;;;;2.28;86.19;100583.14;103527;1300;24215;-26
2022/01/15 10:20:04;;;;;;;17.90;6.30;;;;;;;2.75;84.04;100583.11;103539;1300;24308;-25
2022/01/15 10:22:32;;;;;;;21.50;6.00;;;;;;;2.28;83.98;100576.76;103597;1300;24332;-29
2022/01/15 10:25:00;;;;;;;13.60;6.10;;;;;;;2.46;84.58;100576.10;103581;1300;24221;-31
2022/01/15 10:27:31;;;;;;;26.60;6.40;;;;;;;2.14;85.50;100573.69;103528;1301;24234;-30
2022/01/15 10:30:20;;;;;;;34.60;11.70;;;;;;;2.75;83.19;100575.61;103599;1300;24305;-27
2022/01/15 10:32:51;;;;;;;29.40;8.90;;;;;;;2.59;83.85;100578.30;103507;1300;24494;-29
2022/01/15 10:35:17;;;;;;;16.90;6.00;;;;;;;2.56;84.89;100576.41;103561;1300;24231;-28
2022/01/15 10:37:50;;;;;;;13.90;3.50;;;;;;;3.16;81.98;100576.86;103618;1300;24140;-25
2022/01/15 10:40:16;;;;;;;21.90;5.50;;;;;;;3.06;81.12;100575.40;103578;1300;22522;-27
2022/01/15 10:42:42;;;;;;;25.50;6.60;;;;;;;2.98;82.04;100570.33;103509;1300;24317;-27
2022/01/15 10:45:10;;;;;;;6.60;2.50;;;;;;;3.09;82.29;100568.80;103638;1300;24199;-29
2022/01/15 10:47:42;;;;;;;14.80;5.00;;;;;;;3.36;80.25;100565.21;103585;1300;24348;-29
2022/01/15 10:50:09;;;;;;;17.50;7.20;;;;;;;3.10;82.39;100564.10;103558;1300;25252;-30
2022/01/15 10:52:35;;;;;;;34.20;4.30;;;;;;;3.47;80.59;100565.63;103592;1300;24325;-34
2022/01/15 10:55:06;;;;;;;7.70;2.60;;;;;;;3.03;82.37;100565.88;103560;1300;24330;-28
2022/01/15 10:57:35;;;;;;;14.60;8.10;;;;;;;3.25;82.56;100559.72;103525;1300;24207;-31
2022/01/15 11:00:04;;;;;;;22.20;5.70;;;;;;;3.36;81.96;100556.20;103473;1301;24606;-28
2022/01/15 11:02:30;;;;;;;18.90;6.50;;;;;;;3.55;81.42;100562.49;103623;1300;24352;-31
2022/01/15 11:04:57;;;;;;;18.70;7.10;;;;;;;3.67;81.05;100558.48;103591;1299;24217;-30
2022/01/15 11:07:23;;;;;;;19.00;5.70;;;;;;;3.91;79.17;100557.30;103533;1300;24170;-29
2022/01/15 11:09:51;;;;;;;19.10;5.40;;;;;;;3.75;79.13;100559.66;103565;1300;24263;-29
2022/01/15 11:12:18;;;;;;;32.30;5.60;;;;;;;3.81;79.47;100559.89;103527;1300;24211;-25
2022/01/15 11:14:43;;;;;;;18.00;6.80;;;;;;;4.10;79.72;100560.46;103527;1300;24191;-25
2022/01/15 11:17:09;;;;;;;18.90;6.40;;;;;;;4.15;79.16;100557.77;103535;1300;24159;-29
2022/01/15 11:19:35;;;;;;;18.40;5.60;;;;;;;4.30;79.12;100552.98;103573;1300;24172;-25
2022/01/15 11:22:02;;;;;;;22.00;6.40;;;;;;;4.59;79.57;100553.21;103594;1300;24193;-25
2022/01/15 11:24:29;;;;;;;19.00;6.00;;;;;;;4.65;78.35;100548.84;103681;1300;24172;-29
2022/01/15 11:26:57;;;;;;;33.60;5.40;;;;;;;4.74;76.77;100544.11;103586;1300;24330;-28
2022/01/15 11:29:24;;;;;;;33.00;6.00;;;;;;;4.72;76.45;100539.70;103561;1300;24266;-28